createdAt,value
2022-10-17T00:00:01.079Z,25
2022-10-17T00:02:31.863Z,28
2022-10-17T00:05:02.768Z,28
2022-10-17T00:07:33.991Z,28
2022-10-17T00:10:04.846Z,24
2022-10-17T00:12:36.078Z,28
2022-10-17T00:15:07.130Z,28
2022-10-17T00:17:38.466Z,27
2022-10-17T00:20:10.221Z,28
2022-10-17T00:22:41.062Z,28
2022-10-17T00:25:13.258Z,22
2022-10-17T00:27:44.273Z,30
2022-10-17T00:30:16.584Z,25
2022-10-17T00:32:47.292Z,24
2022-10-17T00:35:16.707Z,26
2022-10-17T00:37:47.933Z,29
2022-10-17T00:40:18.630Z,32
2022-10-17T00:42:49.838Z,28
2022-10-17T00:45:24.426Z,26
2022-10-17T00:47:55.478Z,32
2022-10-17T00:50:26.586Z,28
2022-10-17T00:52:57.958Z,28
2022-10-17T00:55:29.074Z,28
2022-10-17T00:58:02.396Z,28
2022-10-17T01:00:33.209Z,31
2022-10-17T01:03:04.803Z,32
2022-10-17T01:05:37.180Z,37
2022-10-17T01:08:08.058Z,34
2022-10-17T01:13:10.142Z,29
2022-10-17T01:15:41.098Z,32
2022-10-17T01:18:14.163Z,28
2022-10-17T01:20:46.665Z,27
2022-10-17T01:23:22.082Z,28
2022-10-17T01:25:53.268Z,24
2022-10-17T01:28:24.465Z,21
2022-10-17T01:30:55.565Z,24
2022-10-17T01:33:27.306Z,26
2022-10-17T01:36:01.747Z,27
2022-10-17T01:38:30.983Z,25
2022-10-17T01:41:01.472Z,24
2022-10-17T01:43:33.018Z,25
2022-10-17T01:46:03.838Z,24
2022-10-17T01:48:34.270Z,24
2022-10-17T01:51:03.597Z,20
2022-10-17T01:53:35.124Z,28
2022-10-17T01:56:04.953Z,28
2022-10-17T01:58:34.291Z,26
2022-10-17T02:01:05.121Z,28
2022-10-17T02:03:36.231Z,21
2022-10-17T02:06:07.567Z,28
2022-10-17T02:08:36.898Z,25
2022-10-17T02:11:07.603Z,28
2022-10-17T02:13:38.962Z,25
2022-10-17T02:16:09.508Z,21
2022-10-17T02:18:40.581Z,25
2022-10-17T02:21:13.199Z,28
2022-10-17T02:23:44.501Z,24
2022-10-17T02:26:16.008Z,21
2022-10-17T02:28:47.364Z,27
2022-10-17T02:31:18.167Z,24
2022-10-17T02:33:48.507Z,24
2022-10-17T02:36:19.531Z,32
2022-10-17T02:38:50.925Z,28
2022-10-17T02:41:20.302Z,21
2022-10-17T02:43:51.574Z,26
2022-10-17T02:46:21.286Z,23
2022-10-17T02:48:54.137Z,28
2022-10-17T02:51:25.556Z,27
2022-10-17T02:53:57.023Z,24
2022-10-17T02:56:28.055Z,25
2022-10-17T02:58:59.271Z,22
2022-10-17T03:01:30.270Z,23
2022-10-17T03:04:01.441Z,24
2022-10-17T03:06:32.095Z,25
2022-10-17T03:09:02.676Z,24
2022-10-17T03:11:33.464Z,20
2022-10-17T03:14:04.809Z,22
2022-10-17T03:16:35.902Z,25
2022-10-17T03:19:06.825Z,23
2022-10-17T03:21:38.902Z,24
2022-10-17T03:24:09.411Z,21
2022-10-17T03:26:39.828Z,24
2022-10-17T03:29:12.314Z,28
2022-10-17T03:31:46.010Z,28
2022-10-17T03:34:16.759Z,23
2022-10-17T03:36:53.105Z,20
2022-10-17T03:39:28.165Z,24
2022-10-17T03:42:01.105Z,27
2022-10-17T03:44:35.373Z,26
2022-10-17T03:47:09.379Z,29
2022-10-17T03:49:41.422Z,24
2022-10-17T03:52:12.954Z,24
2022-10-17T03:54:44.475Z,24
2022-10-17T03:57:15.359Z,25
2022-10-17T03:59:46.583Z,25
2022-10-17T04:02:17.499Z,25
2022-10-17T04:04:48.835Z,28
2022-10-17T04:07:19.617Z,24
2022-10-17T04:09:50.895Z,32
2022-10-17T04:12:20.164Z,27
2022-10-17T04:14:49.492Z,24
2022-10-17T04:17:18.745Z,28
2022-10-17T04:19:49.565Z,24
2022-10-17T04:22:20.932Z,27
2022-10-17T04:24:51.657Z,28
2022-10-17T04:27:22.732Z,27
2022-10-17T04:29:53.490Z,31
2022-10-17T04:32:24.375Z,24
2022-10-17T04:34:55.029Z,28
2022-10-17T04:37:26.211Z,30
2022-10-17T04:39:58.106Z,24
2022-10-17T04:42:30.014Z,27
2022-10-17T04:45:01.660Z,28
2022-10-17T04:47:33.093Z,24
2022-10-17T04:50:05.271Z,23
2022-10-17T04:52:36.545Z,24
2022-10-17T04:55:08.451Z,32
2022-10-17T04:57:41.864Z,28
2022-10-17T05:00:14.850Z,24
2022-10-17T05:02:45.827Z,24
2022-10-17T05:05:17.081Z,26
2022-10-17T05:07:49.137Z,28
2022-10-17T05:10:22.118Z,24
2022-10-17T05:12:56.409Z,24
2022-10-17T05:15:27.397Z,27
2022-10-17T05:17:58.347Z,29
2022-10-17T05:20:28.542Z,28
2022-10-17T05:22:58.283Z,30
2022-10-17T05:25:29.111Z,24
2022-10-17T05:28:00.898Z,28
2022-10-17T05:30:33.773Z,28
2022-10-17T05:33:02.499Z,28
2022-10-17T05:35:34.009Z,31
2022-10-17T05:38:04.887Z,32
2022-10-17T05:40:36.663Z,35
2022-10-17T05:43:08.342Z,29
2022-10-17T05:45:39.072Z,32
2022-10-17T05:48:09.618Z,28
2022-10-17T05:50:40.528Z,32
2022-10-17T05:53:09.550Z,28
2022-10-17T05:55:40.711Z,28
2022-10-17T05:58:14.258Z,28
2022-10-17T06:00:42.179Z,32
2022-10-17T06:03:13.186Z,27
2022-10-17T06:05:45.411Z,30
2022-10-17T06:08:16.439Z,28
2022-10-17T06:10:47.266Z,32
2022-10-17T06:13:18.077Z,32
2022-10-17T06:15:48.979Z,24
2022-10-17T06:18:19.391Z,27
2022-10-17T06:20:50.253Z,28
2022-10-17T06:23:21.069Z,28
2022-10-17T06:25:51.958Z,28
2022-10-17T06:28:24.194Z,32
2022-10-17T06:30:55.028Z,24
2022-10-17T06:33:28.096Z,31
2022-10-17T06:35:59.254Z,31
2022-10-17T06:38:30.372Z,28
2022-10-17T06:41:01.124Z,28
2022-10-17T06:43:33.583Z,29
2022-10-17T06:46:04.252Z,30
2022-10-17T06:48:35.202Z,28
2022-10-17T06:51:06.280Z,24
2022-10-17T06:53:37.740Z,24
2022-10-17T06:56:08.616Z,29
2022-10-17T06:58:38.892Z,24
2022-10-17T07:01:09.840Z,25
2022-10-17T07:03:41.879Z,28
2022-10-17T07:06:13.256Z,25
2022-10-17T07:08:44.102Z,24
2022-10-17T07:11:14.863Z,28
2022-10-17T07:13:47.409Z,24
2022-10-17T07:16:19.256Z,24
2022-10-17T07:18:50.124Z,28
2022-10-17T07:21:22.724Z,28
2022-10-17T07:23:58.629Z,27
2022-10-17T07:26:29.294Z,28
2022-10-17T07:29:00.528Z,29
2022-10-17T07:31:31.247Z,25
2022-10-17T07:34:02.410Z,25
2022-10-17T07:36:33.325Z,24
2022-10-17T07:39:04.046Z,24
2022-10-17T07:41:35.183Z,29
2022-10-17T07:44:06.526Z,27
2022-10-17T07:46:37.178Z,26
2022-10-17T07:49:08.344Z,25
2022-10-17T07:51:39.297Z,22
2022-10-17T07:54:09.931Z,24
2022-10-17T07:56:39.133Z,25
2022-10-17T07:59:10.749Z,21
2022-10-17T08:01:41.927Z,24
2022-10-17T08:04:13.278Z,28
2022-10-17T08:06:44.066Z,23
2022-10-17T08:09:15.435Z,28
2022-10-17T08:11:46.814Z,22
2022-10-17T08:14:17.467Z,23
2022-10-17T08:16:46.644Z,20
2022-10-17T08:19:17.559Z,24
2022-10-17T08:21:53.920Z,20
2022-10-17T08:24:25.118Z,16
2022-10-17T08:26:57.045Z,18
2022-10-17T08:29:28.399Z,17
2022-10-17T08:32:01.019Z,20
2022-10-17T08:34:28.546Z,20
2022-10-17T08:36:59.441Z,23
2022-10-17T08:39:29.684Z,16
2022-10-17T08:42:00.174Z,22
2022-10-17T08:44:30.927Z,20
2022-10-17T08:47:01.799Z,20
2022-10-17T08:49:32.742Z,16
2022-10-17T08:52:03.956Z,20
2022-10-17T08:54:35.089Z,20
2022-10-17T08:57:06.427Z,20
2022-10-17T08:59:37.479Z,20
2022-10-17T09:02:08.486Z,20
2022-10-17T09:04:39.319Z,19
2022-10-17T09:07:09.941Z,20
2022-10-17T09:09:40.522Z,20
2022-10-17T09:12:11.214Z,19
2022-10-17T09:14:43.131Z,16
2022-10-17T09:17:13.942Z,20
2022-10-17T09:19:44.587Z,19
2022-10-17T09:22:15.046Z,20
2022-10-17T09:24:46.119Z,20
2022-10-17T09:27:17.642Z,18
2022-10-17T09:29:48.124Z,17
2022-10-17T09:32:19.127Z,16
2022-10-17T09:34:49.668Z,16
2022-10-17T09:37:20.094Z,12
2022-10-17T09:39:51.124Z,16
2022-10-17T09:42:21.588Z,17
2022-10-17T09:44:52.328Z,20
2022-10-17T09:47:24.061Z,18
2022-10-17T09:49:54.686Z,19
2022-10-17T09:52:25.313Z,18
2022-10-17T09:54:55.944Z,16
2022-10-17T09:57:26.335Z,16
2022-10-17T09:59:56.853Z,16
2022-10-17T10:02:27.811Z,17
2022-10-17T10:05:06.841Z,16
2022-10-17T10:07:29.659Z,16
2022-10-17T10:10:00.229Z,20
2022-10-17T10:12:31.735Z,17
2022-10-17T10:15:02.574Z,16
2022-10-17T10:17:32.968Z,19
2022-10-17T10:20:05.315Z,17
2022-10-17T10:22:36.615Z,20
2022-10-17T10:25:07.589Z,20
2022-10-17T10:27:38.572Z,16
2022-10-17T10:30:08.987Z,16
2022-10-17T10:32:39.808Z,20
2022-10-17T10:35:09.979Z,23
2022-10-17T10:37:40.199Z,22
2022-10-17T10:40:10.743Z,20
2022-10-17T10:42:41.960Z,24
2022-10-17T10:45:19.031Z,20
2022-10-17T10:47:43.184Z,20
2022-10-17T10:50:13.981Z,20
2022-10-17T10:52:44.671Z,24
2022-10-17T10:55:15.341Z,18
2022-10-17T10:57:46.266Z,16
2022-10-17T11:00:17.031Z,20
2022-10-17T11:02:47.907Z,16
2022-10-17T11:05:20.029Z,20
2022-10-17T11:07:51.103Z,20
2022-10-17T11:10:21.712Z,15
2022-10-17T11:12:52.697Z,20
2022-10-17T11:15:23.023Z,20
2022-10-17T11:17:54.717Z,18
2022-10-17T11:20:23.565Z,18
2022-10-17T11:22:55.543Z,16
2022-10-17T11:25:26.384Z,20
2022-10-17T11:27:59.780Z,16
2022-10-17T11:30:27.915Z,17
2022-10-17T11:32:59.026Z,16
2022-10-17T11:35:29.365Z,16
2022-10-17T11:37:59.885Z,16
2022-10-17T11:40:30.856Z,12
2022-10-17T11:43:01.257Z,16
2022-10-17T11:45:31.849Z,12
2022-10-17T11:48:02.620Z,16
2022-10-17T11:53:04.994Z,19
2022-10-17T11:55:36.032Z,18
2022-10-17T11:58:06.603Z,16
2022-10-17T12:00:38.021Z,12
2022-10-17T12:03:07.597Z,16
2022-10-17T12:05:38.333Z,13
2022-10-17T12:08:10.321Z,16
2022-10-17T12:10:40.886Z,16
2022-10-17T12:13:11.772Z,16
2022-10-17T12:15:46.514Z,20
2022-10-17T12:18:16.412Z,20
2022-10-17T12:20:46.711Z,16
2022-10-17T12:23:17.921Z,16
2022-10-17T12:25:48.653Z,13
2022-10-17T12:28:19.585Z,13
2022-10-17T12:30:49.525Z,16
2022-10-17T12:33:20.021Z,16
2022-10-17T12:35:52.272Z,20
2022-10-17T12:38:25.314Z,16
2022-10-17T12:40:56.106Z,16
2022-10-17T12:43:26.765Z,16
2022-10-17T12:45:57.241Z,16
2022-10-17T12:48:28.246Z,16
2022-10-17T12:51:12.226Z,16
2022-10-17T12:53:28.491Z,16
2022-10-17T12:55:59.634Z,16
2022-10-17T12:58:29.986Z,15
2022-10-17T13:01:28.667Z,13
2022-10-17T13:03:32.119Z,16
2022-10-17T13:06:03.713Z,16
2022-10-17T13:08:34.757Z,12
2022-10-17T13:11:06.921Z,12
2022-10-17T13:13:36.722Z,18
2022-10-17T13:16:07.877Z,12
2022-10-17T13:18:38.379Z,15
2022-10-17T13:21:08.894Z,16
2022-10-17T13:23:39.641Z,16
2022-10-17T13:26:10.717Z,12
2022-10-17T13:28:39.921Z,15
2022-10-17T13:31:10.324Z,16
2022-10-17T13:33:40.974Z,16
2022-10-17T13:36:11.681Z,17
2022-10-17T13:38:42.958Z,20
2022-10-17T13:41:34.613Z,12
2022-10-17T13:43:45.995Z,17
2022-10-17T13:46:35.930Z,17
2022-10-17T13:48:48.113Z,16
2022-10-17T13:51:18.463Z,19
2022-10-17T13:53:49.362Z,20
2022-10-17T13:56:28.150Z,16
2022-10-17T13:58:51.778Z,16
2022-10-17T14:01:22.669Z,17
2022-10-17T14:04:02.439Z,16
2022-10-17T14:06:24.619Z,15
2022-10-17T14:08:55.211Z,16
2022-10-17T14:11:26.289Z,16
2022-10-17T14:13:57.007Z,16
2022-10-17T14:16:28.404Z,16
2022-10-17T14:18:59.311Z,20
2022-10-17T14:21:43.143Z,17
2022-10-17T14:24:01.223Z,17
2022-10-17T14:26:33.351Z,16
2022-10-17T14:29:05.087Z,16
2022-10-17T14:31:36.829Z,17
2022-10-17T14:34:08.153Z,20
2022-10-17T14:36:39.335Z,19
2022-10-17T14:39:14.239Z,20
2022-10-17T14:41:43.680Z,20
2022-10-17T14:44:15.029Z,20
2022-10-17T14:46:49.687Z,16
2022-10-17T14:49:24.186Z,13
2022-10-17T14:51:57.303Z,20
2022-10-17T14:54:24.200Z,16
2022-10-17T14:56:55.310Z,16
2022-10-17T14:59:52.559Z,16
2022-10-17T15:01:58.786Z,19
2022-10-17T15:04:29.687Z,16
2022-10-17T15:07:01.278Z,21
2022-10-17T15:09:32.200Z,16
2022-10-17T15:12:05.378Z,22
2022-10-17T15:14:36.785Z,20
2022-10-17T15:17:08.185Z,16
2022-10-17T15:19:39.295Z,16
2022-10-17T15:22:10.554Z,17
2022-10-17T15:24:41.800Z,20
2022-10-17T15:27:13.380Z,22
2022-10-17T15:29:44.329Z,22
2022-10-17T15:32:15.500Z,18
2022-10-17T15:34:46.689Z,20
2022-10-17T15:37:19.245Z,20
2022-10-17T15:39:49.689Z,20
2022-10-17T15:42:21.225Z,21
2022-10-17T15:44:52.820Z,21
2022-10-17T15:47:23.917Z,28
2022-10-17T15:49:54.785Z,24
2022-10-17T15:52:26.002Z,26
2022-10-17T15:54:57.263Z,28
2022-10-17T15:57:28.843Z,28
2022-10-17T16:00:00.040Z,26
2022-10-17T16:02:32.082Z,24
2022-10-17T16:05:02.610Z,24
2022-10-17T16:07:33.820Z,24
2022-10-17T16:10:05.171Z,24
2022-10-17T16:12:37.403Z,26
2022-10-17T16:15:08.921Z,28
2022-10-17T16:17:40.508Z,28
2022-10-17T16:20:11.986Z,28
2022-10-17T16:22:43.381Z,26
2022-10-17T16:25:14.948Z,28
2022-10-17T16:27:46.372Z,28
2022-10-17T16:30:18.368Z,24
2022-10-17T16:32:47.686Z,26
2022-10-17T16:35:19.265Z,28
2022-10-17T16:37:52.114Z,24
2022-10-17T16:40:23.782Z,24
2022-10-17T16:42:55.404Z,28
2022-10-17T16:45:29.050Z,28
2022-10-17T16:48:00.196Z,33
2022-10-17T16:50:34.232Z,28
2022-10-17T16:53:06.099Z,28
2022-10-17T16:55:37.955Z,32
2022-10-17T16:58:09.368Z,28
2022-10-17T17:00:40.915Z,31
2022-10-17T17:03:12.204Z,32
2022-10-17T17:05:43.638Z,28
2022-10-17T17:08:15.160Z,31
2022-10-17T17:10:46.743Z,28
2022-10-17T17:13:18.569Z,28
2022-10-17T17:15:50.274Z,32
2022-10-17T17:18:22.540Z,28
2022-10-17T17:20:54.849Z,32
2022-10-17T17:23:26.873Z,32
2022-10-17T17:25:59.346Z,36
2022-10-17T17:28:30.661Z,36
2022-10-17T17:31:01.581Z,36
2022-10-17T17:33:32.927Z,41
2022-10-17T17:36:04.006Z,32
2022-10-17T17:38:35.322Z,34
2022-10-17T17:41:11.088Z,36
2022-10-17T17:43:46.366Z,33
2022-10-17T17:46:19.880Z,40
2022-10-17T17:48:51.364Z,40
2022-10-17T17:51:25.458Z,40
2022-10-17T17:53:53.702Z,41
2022-10-17T17:56:24.677Z,44
2022-10-17T17:58:56.055Z,41
2022-10-17T18:01:27.243Z,44
2022-10-17T18:04:00.510Z,44
2022-10-17T18:06:33.287Z,42
2022-10-17T18:09:06.147Z,44
2022-10-17T18:11:38.047Z,40
2022-10-17T18:14:09.345Z,44
2022-10-17T18:16:40.883Z,44
2022-10-17T18:19:13.557Z,42
2022-10-17T18:21:45.963Z,43
2022-10-17T18:24:18.086Z,44
2022-10-17T18:26:49.347Z,39
2022-10-17T18:29:20.489Z,40
2022-10-17T18:31:52.076Z,39
2022-10-17T18:34:23.520Z,40
2022-10-17T18:36:55.377Z,40
2022-10-17T18:39:27.267Z,40
2022-10-17T18:41:58.661Z,37
2022-10-17T18:44:29.723Z,36
2022-10-17T18:47:02.872Z,40
2022-10-17T18:49:32.231Z,36
2022-10-17T18:52:04.324Z,40
2022-10-17T18:54:36.691Z,39
2022-10-17T18:57:07.914Z,40
2022-10-17T18:59:39.505Z,40
2022-10-17T19:02:15.581Z,36
2022-10-17T19:07:19.169Z,36
2022-10-17T19:09:49.909Z,40
2022-10-17T19:12:21.204Z,44
2022-10-17T19:14:52.449Z,36
2022-10-17T19:17:28.546Z,39
2022-10-17T19:19:59.677Z,36
2022-10-17T19:22:30.653Z,34
2022-10-17T19:25:01.697Z,40
2022-10-17T19:27:33.078Z,40
2022-10-17T19:30:04.352Z,39
2022-10-17T19:32:35.514Z,41
2022-10-17T19:35:08.806Z,40
2022-10-17T19:37:40.240Z,40
2022-10-17T19:40:11.443Z,40
2022-10-17T19:42:44.101Z,46
2022-10-17T19:45:21.681Z,44
2022-10-17T19:47:52.840Z,40
2022-10-17T19:50:23.566Z,40
2022-10-17T19:52:55.000Z,36
2022-10-17T19:55:26.007Z,40
2022-10-17T19:57:57.170Z,41
2022-10-17T20:00:29.443Z,36
2022-10-17T20:03:01.822Z,40
2022-10-17T20:05:33.182Z,44
2022-10-17T20:08:07.029Z,40
2022-10-17T20:10:39.095Z,41
2022-10-17T20:13:09.973Z,37
2022-10-17T20:15:41.397Z,41
2022-10-17T20:18:13.356Z,40
2022-10-17T20:20:45.919Z,41
2022-10-17T20:23:17.016Z,40
2022-10-17T20:25:52.901Z,40
2022-10-17T20:28:20.231Z,44
2022-10-17T20:30:52.598Z,40
2022-10-17T20:33:22.460Z,43
2022-10-17T20:35:53.652Z,44
2022-10-17T20:38:26.459Z,44
2022-10-17T20:40:59.490Z,40
2022-10-17T20:43:30.869Z,40
2022-10-17T20:46:08.661Z,40
2022-10-17T20:48:33.934Z,44
2022-10-17T20:51:06.270Z,40
2022-10-17T20:53:38.796Z,44
2022-10-17T20:56:11.302Z,44
2022-10-17T20:58:44.268Z,47
2022-10-17T21:01:16.232Z,49
2022-10-17T21:03:46.583Z,45
2022-10-17T21:06:17.525Z,48
2022-10-17T21:08:47.035Z,48
2022-10-17T21:11:18.124Z,44
2022-10-17T21:13:49.422Z,43
2022-10-17T21:16:20.905Z,41
2022-10-17T21:18:52.451Z,45
2022-10-17T21:21:23.984Z,41
2022-10-17T21:23:55.036Z,43
2022-10-17T21:26:26.736Z,44
2022-10-17T21:28:58.190Z,45
2022-10-17T21:31:35.884Z,38
2022-10-17T21:34:07.205Z,40
2022-10-17T21:36:40.540Z,48
2022-10-17T21:39:12.945Z,48
2022-10-17T21:41:47.189Z,44
2022-10-17T21:44:18.736Z,46
2022-10-17T21:46:52.001Z,45
2022-10-17T21:49:25.277Z,44
2022-10-17T21:51:56.506Z,45
2022-10-17T21:54:27.246Z,40
2022-10-17T21:56:58.631Z,41
2022-10-17T21:59:31.957Z,44
2022-10-17T22:02:03.244Z,44
2022-10-17T22:04:33.445Z,41
2022-10-17T22:07:06.048Z,40
2022-10-17T22:09:37.150Z,40
2022-10-17T22:12:08.022Z,37
2022-10-17T22:14:39.465Z,40
2022-10-17T22:17:10.086Z,37
2022-10-17T22:19:40.882Z,38
2022-10-17T22:22:10.475Z,36
2022-10-17T22:24:42.138Z,36
2022-10-17T22:27:15.160Z,40
2022-10-17T22:29:47.608Z,36
2022-10-17T22:32:19.945Z,32
2022-10-17T22:34:48.393Z,36
2022-10-17T22:37:19.585Z,32
2022-10-17T22:39:51.620Z,36
2022-10-17T22:45:01.587Z,36
2022-10-17T22:47:33.945Z,37
2022-10-17T22:50:05.065Z,36
2022-10-17T22:52:42.154Z,36
2022-10-17T22:55:16.498Z,38
2022-10-17T22:57:47.858Z,36
2022-10-17T23:00:18.735Z,32
2022-10-17T23:02:49.708Z,36
2022-10-17T23:05:20.341Z,40
2022-10-17T23:07:53.226Z,34
2022-10-17T23:10:24.534Z,36
2022-10-17T23:12:56.919Z,36
2022-10-17T23:15:28.130Z,36
2022-10-17T23:17:59.420Z,35
2022-10-17T23:20:30.670Z,36
2022-10-17T23:23:02.903Z,36
2022-10-17T23:25:34.060Z,39
2022-10-17T23:28:05.880Z,36
2022-10-17T23:30:37.323Z,36
2022-10-17T23:33:08.220Z,36
2022-10-17T23:35:37.327Z,36
2022-10-17T23:38:08.402Z,36
2022-10-17T23:40:39.560Z,36
2022-10-17T23:43:08.541Z,32
2022-10-17T23:45:37.925Z,36
2022-10-17T23:48:09.398Z,36
2022-10-17T23:50:40.276Z,37
2022-10-17T23:53:10.963Z,40
2022-10-17T23:55:41.556Z,36
2022-10-17T23:58:15.044Z,36
